createdAt,value
2022-10-29T00:02:10.255Z,56.84
2022-10-29T00:04:38.641Z,56.68
2022-10-29T00:07:08.510Z,56.77
2022-10-29T00:09:36.949Z,56.82
2022-10-29T00:12:05.474Z,56.90
2022-10-29T00:14:33.850Z,57.02
2022-10-29T00:17:02.257Z,57.15
2022-10-29T00:19:30.594Z,57.19
2022-10-29T00:21:59.001Z,57.20
2022-10-29T00:24:28.837Z,57.46
2022-10-29T00:26:57.218Z,57.60
2022-10-29T00:29:25.682Z,57.80
2022-10-29T00:31:54.456Z,57.85
2022-10-29T00:34:23.008Z,57.86
2022-10-29T00:36:51.445Z,58.04
2022-10-29T00:39:20.295Z,58.09
2022-10-29T00:41:50.114Z,58.22
2022-10-29T00:44:29.712Z,58.29
2022-10-29T00:47:03.921Z,58.45
2022-10-29T00:49:34.533Z,58.46
2022-10-29T00:52:04.650Z,58.43
2022-10-29T00:54:35.397Z,58.63
2022-10-29T00:57:11.823Z,58.65
2022-10-29T00:59:41.372Z,58.86
2022-10-29T01:02:10.038Z,58.99
2022-10-29T01:04:40.461Z,58.90
2022-10-29T01:07:09.865Z,58.95
2022-10-29T01:09:38.274Z,59.05
2022-10-29T01:12:34.035Z,59.07
2022-10-29T01:15:10.022Z,59.02
2022-10-29T01:17:50.484Z,59.02
2022-10-29T01:20:41.882Z,59.13
2022-10-29T01:23:30.399Z,59.12
2022-10-29T01:26:16.880Z,59.20
2022-10-29T01:29:05.469Z,59.41
2022-10-29T01:31:38.391Z,59.50
2022-10-29T01:34:14.546Z,59.36
2022-10-29T01:36:50.197Z,59.59
2022-10-29T01:39:27.853Z,59.29
2022-10-29T01:42:08.018Z,59.58
2022-10-29T01:44:43.074Z,59.86
2022-10-29T01:47:16.959Z,59.77
2022-10-29T01:49:50.024Z,59.81
2022-10-29T01:52:21.765Z,59.86
2022-10-29T01:54:50.363Z,59.87
2022-10-29T01:57:30.354Z,59.94
2022-10-29T02:00:03.033Z,59.90
2022-10-29T02:02:48.279Z,60.09
2022-10-29T02:05:28.478Z,60.08
2022-10-29T02:08:02.259Z,60.16
2022-10-29T02:10:37.821Z,60.18
2022-10-29T02:13:06.553Z,60.24
2022-10-29T02:15:39.073Z,60.25
2022-10-29T02:18:09.889Z,60.27
2022-10-29T02:20:43.037Z,60.29
2022-10-29T02:23:12.130Z,60.17
2022-10-29T02:25:40.516Z,60.34
2022-10-29T02:28:09.083Z,60.33
2022-10-29T02:30:37.523Z,60.36
2022-10-29T02:33:05.999Z,60.47
2022-10-29T02:35:35.741Z,60.42
2022-10-29T02:38:04.066Z,60.55
2022-10-29T02:40:32.378Z,60.62
2022-10-29T02:43:00.726Z,60.63
2022-10-29T02:45:29.222Z,60.75
2022-10-29T02:47:57.874Z,60.86
2022-10-29T02:50:26.836Z,61.00
2022-10-29T02:52:56.704Z,61.02
2022-10-29T02:55:25.092Z,61.07
2022-10-29T02:57:53.588Z,61.27
2022-10-29T03:00:22.241Z,61.27
2022-10-29T03:02:53.004Z,61.25
2022-10-29T03:05:21.771Z,61.32
2022-10-29T03:07:50.149Z,61.44
2022-10-29T03:10:20.056Z,61.39
2022-10-29T03:12:48.374Z,61.47
2022-10-29T03:15:16.925Z,61.55
2022-10-29T03:17:45.319Z,61.57
2022-10-29T03:20:13.831Z,61.84
2022-10-29T03:22:42.206Z,61.78
2022-10-29T03:25:11.507Z,61.75
2022-10-29T03:27:44.515Z,61.72
2022-10-29T03:30:15.515Z,61.79
2022-10-29T03:32:44.339Z,61.75
2022-10-29T03:35:14.208Z,61.70
2022-10-29T03:37:42.705Z,61.74
2022-10-29T03:40:11.899Z,61.71
2022-10-29T03:42:40.523Z,61.79
2022-10-29T03:45:12.364Z,61.83
2022-10-29T03:47:40.811Z,61.79
2022-10-29T03:50:10.585Z,61.96
2022-10-29T03:52:39.016Z,61.98
2022-10-29T03:55:08.586Z,61.94
2022-10-29T03:57:37.154Z,62.15
2022-10-29T04:00:06.484Z,62.19
2022-10-29T04:02:36.442Z,62.17
2022-10-29T04:05:05.096Z,62.37
2022-10-29T04:07:33.876Z,62.67
2022-10-29T04:10:02.555Z,62.86
2022-10-29T04:12:30.915Z,62.93
2022-10-29T04:14:59.295Z,62.83
2022-10-29T04:17:27.716Z,62.74
2022-10-29T04:19:57.547Z,62.58
2022-10-29T04:28:42.400Z,62.72
2022-10-29T04:30:52.383Z,62.76
2022-10-29T04:33:21.181Z,62.50
2022-10-29T04:35:54.938Z,62.52
2022-10-29T04:38:23.416Z,62.77
2022-10-29T04:40:52.250Z,62.58
2022-10-29T04:43:20.645Z,62.48
2022-10-29T04:45:53.082Z,62.49
2022-10-29T04:48:21.839Z,62.59
2022-10-29T04:50:50.715Z,62.58
2022-10-29T04:53:21.900Z,62.46
2022-10-29T04:55:50.332Z,62.55
2022-10-29T04:58:20.575Z,62.59
2022-10-29T05:00:49.302Z,62.81
2022-10-29T05:03:17.688Z,62.79
2022-10-29T05:05:46.025Z,62.83
2022-10-29T05:08:15.524Z,62.83
2022-10-29T05:10:45.370Z,63.11
2022-10-29T05:13:14.218Z,63.04
2022-10-29T05:15:43.377Z,63.13
2022-10-29T05:18:12.068Z,63.20
2022-10-29T05:20:40.498Z,63.27
2022-10-29T05:23:11.429Z,63.25
2022-10-29T05:25:41.469Z,63.40
2022-10-29T05:28:13.735Z,63.32
2022-10-29T05:30:44.109Z,63.17
2022-10-29T05:33:13.953Z,63.35
2022-10-29T05:35:42.865Z,63.36
2022-10-29T05:38:12.425Z,63.47
2022-10-29T05:40:42.831Z,63.45
2022-10-29T05:43:12.890Z,63.35
2022-10-29T05:45:41.688Z,63.41
2022-10-29T05:50:41.296Z,63.36
2022-10-29T05:53:12.317Z,63.49
2022-10-29T05:55:40.783Z,63.47
2022-10-29T05:58:13.527Z,63.59
2022-10-29T06:00:45.136Z,63.77
2022-10-29T06:03:16.176Z,63.78
2022-10-29T06:05:45.074Z,63.72
2022-10-29T06:08:13.438Z,63.56
2022-10-29T06:10:42.153Z,63.65
2022-10-29T06:13:16.618Z,63.78
2022-10-29T06:15:45.987Z,63.80
2022-10-29T06:18:14.365Z,63.82
2022-10-29T06:20:43.770Z,64.04
2022-10-29T06:23:13.048Z,64.17
2022-10-29T06:25:41.501Z,64.51
2022-10-29T06:28:12.294Z,64.75
2022-10-29T06:30:43.059Z,64.82
2022-10-29T06:33:11.530Z,64.74
2022-10-29T06:35:40.004Z,64.51
2022-10-29T06:38:11.160Z,64.20
2022-10-29T06:40:41.033Z,64.08
2022-10-29T06:43:13.221Z,64.38
2022-10-29T06:45:43.161Z,64.59
2022-10-29T06:48:11.558Z,64.53
2022-10-29T06:50:39.988Z,64.50
2022-10-29T06:53:11.221Z,64.36
2022-10-29T06:55:39.637Z,64.30
2022-10-29T06:58:09.423Z,64.10
2022-10-29T07:00:38.283Z,64.11
2022-10-29T07:03:08.346Z,63.92
2022-10-29T07:05:36.800Z,64.04
2022-10-29T07:08:05.475Z,63.90
2022-10-29T07:10:34.817Z,63.61
2022-10-29T07:13:03.557Z,63.35
2022-10-29T07:15:32.781Z,63.10
2022-10-29T07:18:02.850Z,62.88
2022-10-29T07:20:34.724Z,62.87
2022-10-29T07:23:05.650Z,62.91
2022-10-29T07:25:35.220Z,62.86
2022-10-29T07:28:07.949Z,62.78
2022-10-29T07:30:38.024Z,62.77
2022-10-29T07:33:06.418Z,62.83
2022-10-29T07:35:37.127Z,62.85
2022-10-29T07:38:10.864Z,62.70
2022-10-29T07:40:41.036Z,62.69
2022-10-29T07:43:10.688Z,62.55
2022-10-29T07:45:39.167Z,62.48
2022-10-29T07:48:09.603Z,62.66
2022-10-29T07:50:40.157Z,62.54
2022-10-29T07:53:09.251Z,62.17
2022-10-29T07:55:37.761Z,61.94
2022-10-29T07:58:08.336Z,61.74
2022-10-29T08:00:38.862Z,61.95
2022-10-29T08:03:07.893Z,60.79
2022-10-29T08:05:36.494Z,60.31
2022-10-29T08:08:08.256Z,59.97
2022-10-29T08:10:37.772Z,59.99
2022-10-29T08:13:07.759Z,59.02
2022-10-29T08:15:36.785Z,57.99
2022-10-29T08:18:10.846Z,57.92
2022-10-29T08:20:39.126Z,58.12
2022-10-29T08:23:09.718Z,58.52
2022-10-29T08:25:41.776Z,58.98
2022-10-29T08:28:12.875Z,58.39
2022-10-29T08:30:41.754Z,57.78
2022-10-29T08:33:11.336Z,57.70
2022-10-29T08:35:39.739Z,58.00
2022-10-29T08:38:09.651Z,58.13
2022-10-29T08:40:46.180Z,57.31
2022-10-29T08:43:49.222Z,56.66
2022-10-29T08:46:22.464Z,56.59
2022-10-29T08:48:56.497Z,56.91
2022-10-29T08:51:28.316Z,56.99
2022-10-29T08:56:51.828Z,55.64
2022-10-29T08:59:23.551Z,55.76
2022-10-29T09:01:53.866Z,56.48
2022-10-29T09:04:26.202Z,56.99
2022-10-29T09:07:36.027Z,56.41
2022-10-29T09:10:13.166Z,56.87
2022-10-29T09:13:05.220Z,55.46
2022-10-29T09:15:57.913Z,56.11
2022-10-29T09:18:39.891Z,56.28
2022-10-29T09:21:19.877Z,55.67
2022-10-29T09:24:10.928Z,55.31
2022-10-29T09:26:50.685Z,55.29
2022-10-29T09:29:47.998Z,54.91
2022-10-29T09:32:24.470Z,55.48
2022-10-29T09:34:56.807Z,54.45
2022-10-29T09:37:34.207Z,54.94
2022-10-29T09:40:09.088Z,54.83
2022-10-29T09:42:43.104Z,54.22
2022-10-29T09:45:17.749Z,54.44
2022-10-29T09:47:56.131Z,54.57
2022-10-29T09:50:33.145Z,54.67
2022-10-29T09:53:01.809Z,54.02
2022-10-29T09:55:44.783Z,54.37
2022-10-29T09:58:21.857Z,53.82
2022-10-29T10:00:50.682Z,53.55
2022-10-29T10:03:24.409Z,52.97
2022-10-29T10:06:02.001Z,53.09
2022-10-29T10:08:31.131Z,52.81
2022-10-29T10:11:02.135Z,52.44
2022-10-29T10:13:34.234Z,52.87
2022-10-29T10:16:05.549Z,52.91
2022-10-29T10:18:42.234Z,52.03
2022-10-29T10:21:13.102Z,52.54
2022-10-29T10:23:45.105Z,51.14
2022-10-29T10:26:30.927Z,50.80
2022-10-29T10:29:11.360Z,51.19
2022-10-29T10:31:39.872Z,50.99
2022-10-29T10:34:17.281Z,50.54
2022-10-29T10:36:50.618Z,50.63
2022-10-29T10:39:30.030Z,51.04
2022-10-29T10:42:00.875Z,50.55
2022-10-29T10:44:31.677Z,48.81
2022-10-29T10:47:06.908Z,48.85
2022-10-29T10:49:37.984Z,49.20
2022-10-29T10:52:16.709Z,48.76
2022-10-29T10:54:48.656Z,49.05
2022-10-29T10:57:24.066Z,48.61
2022-10-29T11:00:01.655Z,49.17
2022-10-29T11:02:43.382Z,49.44
2022-10-29T11:05:19.505Z,48.83
2022-10-29T11:07:54.082Z,48.75
2022-10-29T11:10:29.092Z,48.81
2022-10-29T11:13:00.115Z,49.10
2022-10-29T11:15:38.608Z,48.89
2022-10-29T11:21:03.461Z,49.40
2022-10-29T11:23:41.660Z,48.49
2022-10-29T11:26:16.285Z,49.02
2022-10-29T11:28:51.705Z,48.92
2022-10-29T11:31:31.031Z,48.60
2022-10-29T11:34:09.517Z,48.39
2022-10-29T11:36:44.554Z,48.52
2022-10-29T11:39:20.256Z,48.50
2022-10-29T11:41:53.746Z,48.31
2022-10-29T11:44:22.169Z,48.60
2022-10-29T11:47:06.745Z,47.79
2022-10-29T11:49:55.917Z,48.42
2022-10-29T11:52:35.582Z,47.05
2022-10-29T11:55:21.198Z,47.75
2022-10-29T11:57:54.954Z,47.96
2022-10-29T12:00:25.223Z,47.55
2022-10-29T12:03:19.561Z,47.81
2022-10-29T12:05:57.655Z,47.54
2022-10-29T12:08:41.205Z,47.17
2022-10-29T12:11:21.058Z,47.30
2022-10-29T12:13:59.186Z,46.91
2022-10-29T12:16:44.081Z,46.98
2022-10-29T12:19:27.179Z,46.31
2022-10-29T12:22:03.802Z,47.05
2022-10-29T12:24:55.302Z,46.84
2022-10-29T12:27:32.920Z,47.22
2022-10-29T12:30:04.008Z,47.16
2022-10-29T12:32:39.850Z,46.92
2022-10-29T12:35:17.269Z,46.93
2022-10-29T12:37:51.661Z,46.75
2022-10-29T12:40:23.462Z,46.28
2022-10-29T12:42:52.793Z,46.11
2022-10-29T12:45:43.409Z,45.67
2022-10-29T12:48:23.069Z,45.87
2022-10-29T12:51:01.527Z,46.30
2022-10-29T12:53:36.937Z,46.03
2022-10-29T12:56:08.377Z,46.23
2022-10-29T12:58:50.045Z,45.51
2022-10-29T13:02:11.254Z,45.16
2022-10-29T13:04:40.313Z,45.29
2022-10-29T13:07:24.537Z,44.36
2022-10-29T13:10:32.745Z,44.26
2022-10-29T13:13:05.738Z,44.15
2022-10-29T13:15:38.643Z,43.86
2022-10-29T13:18:18.240Z,43.01
2022-10-29T13:20:50.381Z,43.33
2022-10-29T13:23:37.782Z,43.49
2022-10-29T13:26:07.513Z,43.72
2022-10-29T13:28:50.804Z,43.66
2022-10-29T13:31:47.375Z,42.94
2022-10-29T13:34:49.054Z,43.36
2022-10-29T13:38:03.638Z,43.71
2022-10-29T13:40:59.066Z,43.76
2022-10-29T13:43:28.346Z,43.46
2022-10-29T13:46:27.869Z,42.85
2022-10-29T13:48:59.637Z,43.12
2022-10-29T13:51:38.507Z,42.73
2022-10-29T13:54:12.529Z,42.80
2022-10-29T13:56:48.251Z,42.63
2022-10-29T13:59:24.764Z,42.51
2022-10-29T14:02:02.601Z,42.73
2022-10-29T14:04:37.164Z,42.49
2022-10-29T14:07:11.330Z,42.33
2022-10-29T14:09:45.361Z,42.50
2022-10-29T14:12:21.165Z,42.46
2022-10-29T14:14:56.750Z,42.64
2022-10-29T14:17:25.321Z,42.81
2022-10-29T14:19:54.746Z,42.96
2022-10-29T14:22:38.413Z,42.89
2022-10-29T14:25:29.165Z,43.17
2022-10-29T14:28:19.382Z,43.57
2022-10-29T14:30:49.051Z,43.69
2022-10-29T14:33:25.040Z,43.83
2022-10-29T14:35:56.717Z,43.80
2022-10-29T14:38:33.758Z,44.11
2022-10-29T14:41:02.405Z,44.04
2022-10-29T14:43:32.636Z,44.33
2022-10-29T14:46:13.960Z,43.97
2022-10-29T14:48:53.678Z,44.23
2022-10-29T14:51:22.992Z,44.04
2022-10-29T14:53:58.928Z,44.01
2022-10-29T14:56:36.619Z,43.93
2022-10-29T14:59:15.762Z,43.40
2022-10-29T15:01:56.739Z,43.80
2022-10-29T15:04:31.274Z,43.34
2022-10-29T15:07:18.228Z,43.54
2022-10-29T15:09:47.880Z,43.80
2022-10-29T15:12:22.350Z,43.68
2022-10-29T15:14:53.558Z,43.72
2022-10-29T15:17:24.814Z,43.78
2022-10-29T15:19:56.905Z,44.06
2022-10-29T15:22:30.721Z,43.94
2022-10-29T15:25:00.109Z,44.06
2022-10-29T15:27:28.858Z,44.04
2022-10-29T15:29:59.846Z,44.21
2022-10-29T15:32:31.466Z,44.20
2022-10-29T15:35:00.878Z,44.34
2022-10-29T15:37:44.087Z,44.38
2022-10-29T15:40:15.037Z,44.40
2022-10-29T15:42:45.488Z,44.49
2022-10-29T15:45:26.078Z,44.58
2022-10-29T15:47:58.396Z,44.54
2022-10-29T15:50:32.717Z,44.23
2022-10-29T15:53:05.968Z,44.46
2022-10-29T15:55:36.493Z,44.54
2022-10-29T16:00:35.600Z,44.17
2022-10-29T16:03:15.349Z,44.28
2022-10-29T16:05:47.187Z,44.34
2022-10-29T16:08:30.349Z,44.41
2022-10-29T16:11:00.292Z,44.72
2022-10-29T16:13:30.641Z,44.86
2022-10-29T16:16:00.460Z,44.89
2022-10-29T16:18:29.586Z,44.98
2022-10-29T16:21:00.682Z,44.94
2022-10-29T16:23:29.190Z,45.23
2022-10-29T16:25:57.498Z,45.03
2022-10-29T16:28:25.970Z,45.03
2022-10-29T16:30:56.259Z,45.25
2022-10-29T16:33:26.315Z,44.53
2022-10-29T16:35:54.665Z,44.50
2022-10-29T16:38:22.982Z,44.74
2022-10-29T16:40:53.014Z,43.68
2022-10-29T16:43:21.750Z,43.97
2022-10-29T16:45:50.205Z,44.48
2022-10-29T16:48:18.597Z,44.69
2022-10-29T16:50:48.708Z,44.42
2022-10-29T16:53:17.057Z,44.78
2022-10-29T16:55:45.459Z,44.63
2022-10-29T16:58:15.135Z,44.63
2022-10-29T17:00:43.817Z,44.87
2022-10-29T17:03:14.041Z,44.81
2022-10-29T17:05:44.597Z,44.90
2022-10-29T17:08:15.533Z,44.91
2022-10-29T17:10:43.806Z,45.12
2022-10-29T17:13:12.324Z,45.21
2022-10-29T17:15:41.674Z,45.60
2022-10-29T17:18:10.538Z,45.57
2022-10-29T17:20:38.907Z,46.06
2022-10-29T17:23:07.406Z,46.08
2022-10-29T17:25:37.105Z,46.21
2022-10-29T17:28:05.541Z,46.42
2022-10-29T17:30:34.941Z,46.40
2022-10-29T17:33:03.280Z,46.81
2022-10-29T17:35:31.637Z,46.93
2022-10-29T17:38:00.143Z,47.02
2022-10-29T17:40:28.418Z,47.42
2022-10-29T17:42:59.030Z,47.58
2022-10-29T17:45:27.704Z,47.87
2022-10-29T17:47:57.381Z,48.15
2022-10-29T17:50:26.655Z,48.22
2022-10-29T17:52:55.125Z,48.69
2022-10-29T17:55:23.513Z,48.95
2022-10-29T17:57:51.919Z,48.97
2022-10-29T18:00:22.248Z,49.21
2022-10-29T18:02:51.236Z,49.46
2022-10-29T18:05:20.092Z,49.96
2022-10-29T18:07:48.728Z,49.92
2022-10-29T18:10:17.400Z,50.03
2022-10-29T18:12:45.756Z,50.17
2022-10-29T18:15:14.182Z,50.36
2022-10-29T18:17:44.034Z,50.58
2022-10-29T18:20:13.037Z,50.59
2022-10-29T18:22:41.797Z,50.85
2022-10-29T18:25:11.054Z,50.78
2022-10-29T18:27:41.515Z,51.07
2022-10-29T18:30:11.279Z,51.08
2022-10-29T18:32:39.738Z,51.33
2022-10-29T18:35:10.958Z,51.27
2022-10-29T18:37:39.445Z,51.57
2022-10-29T18:40:08.965Z,51.62
2022-10-29T18:42:37.640Z,51.69
2022-10-29T18:45:07.073Z,51.87
2022-10-29T18:47:35.601Z,52.03
2022-10-29T18:50:04.137Z,52.28
2022-10-29T18:52:34.674Z,52.48
2022-10-29T18:55:03.283Z,52.47
2022-10-29T18:57:32.560Z,52.70
2022-10-29T19:00:01.062Z,52.84
2022-10-29T19:02:32.174Z,52.88
2022-10-29T19:05:01.662Z,53.00
2022-10-29T19:07:32.306Z,53.35
2022-10-29T19:10:03.520Z,53.32
2022-10-29T19:12:33.351Z,53.43
2022-10-29T19:15:03.349Z,53.55
2022-10-29T19:17:33.173Z,53.72
2022-10-29T19:20:03.482Z,53.72
2022-10-29T19:22:33.771Z,53.91
2022-10-29T19:25:05.262Z,53.96
2022-10-29T19:27:35.828Z,54.04
2022-10-29T19:30:05.796Z,54.24
2022-10-29T19:32:36.371Z,54.27
2022-10-29T19:35:06.239Z,54.46
2022-10-29T19:37:36.353Z,54.58
2022-10-29T19:40:08.763Z,54.51
2022-10-29T19:42:38.577Z,54.73
2022-10-29T19:45:09.310Z,54.83
2022-10-29T19:47:39.019Z,54.86
2022-10-29T19:50:10.426Z,55.09
2022-10-29T19:52:40.533Z,55.10
2022-10-29T19:55:12.958Z,55.33
2022-10-29T19:57:42.683Z,55.35
2022-10-29T20:00:16.803Z,55.36
2022-10-29T20:02:48.408Z,55.36
2022-10-29T20:05:18.341Z,55.56
2022-10-29T20:07:49.816Z,55.70
2022-10-29T20:10:21.212Z,55.69
2022-10-29T20:12:51.342Z,55.86
2022-10-29T20:15:21.090Z,55.71
2022-10-29T20:17:51.327Z,55.72
2022-10-29T20:20:21.138Z,55.87
2022-10-29T20:22:52.819Z,55.74
2022-10-29T20:25:25.338Z,55.86
2022-10-29T20:27:54.984Z,55.84
2022-10-29T20:30:24.839Z,55.68
2022-10-29T20:32:54.529Z,55.79
2022-10-29T20:35:24.415Z,55.83
2022-10-29T20:37:54.369Z,55.78
2022-10-29T20:40:25.581Z,55.77
2022-10-29T20:42:55.356Z,56.12
2022-10-29T20:45:25.136Z,55.91
2022-10-29T20:47:54.937Z,56.01
2022-10-29T20:50:26.871Z,56.19
2022-10-29T20:52:56.834Z,56.18
2022-10-29T20:55:28.030Z,56.21
2022-10-29T20:57:58.252Z,56.33
2022-10-29T21:00:28.216Z,56.31
2022-10-29T21:02:58.005Z,56.48
2022-10-29T21:05:27.657Z,56.44
2022-10-29T21:07:57.971Z,56.65
2022-10-29T21:10:28.364Z,56.50
2022-10-29T21:12:57.808Z,56.37
2022-10-29T21:15:27.274Z,56.43
2022-10-29T21:17:56.658Z,56.45
2022-10-29T21:20:26.025Z,56.46
2022-10-29T21:22:55.967Z,56.42
2022-10-29T21:25:24.539Z,56.46
2022-10-29T21:27:58.150Z,56.19
2022-10-29T21:30:28.432Z,56.02
2022-10-29T21:32:58.300Z,56.12
2022-10-29T21:35:28.125Z,56.44
2022-10-29T21:37:57.990Z,56.57
2022-10-29T21:40:28.059Z,56.43
2022-10-29T21:42:59.859Z,56.65
2022-10-29T21:45:28.550Z,56.46
2022-10-29T21:47:56.971Z,56.46
2022-10-29T21:50:25.397Z,56.86
2022-10-29T21:52:54.987Z,57.07
2022-10-29T21:55:23.899Z,57.15
2022-10-29T21:57:52.647Z,57.41
2022-10-29T22:00:23.333Z,57.16
2022-10-29T22:02:51.774Z,57.19
2022-10-29T22:05:20.185Z,56.76
2022-10-29T22:07:48.702Z,56.81
2022-10-29T22:10:17.174Z,56.69
2022-10-29T22:12:45.535Z,56.07
2022-10-29T22:15:13.926Z,56.07
2022-10-29T22:17:44.109Z,56.36
2022-10-29T22:20:13.591Z,56.58
2022-10-29T22:22:41.998Z,56.60
2022-10-29T22:25:11.005Z,56.78
2022-10-29T22:27:39.408Z,56.95
2022-10-29T22:30:08.411Z,57.03
2022-10-29T22:32:36.897Z,57.12
2022-10-29T22:35:07.169Z,56.98
2022-10-29T22:37:35.807Z,57.21
2022-10-29T22:40:04.429Z,57.25
2022-10-29T22:42:32.815Z,57.33
2022-10-29T22:45:01.690Z,57.35
2022-10-29T22:47:30.063Z,57.08
2022-10-29T22:49:59.626Z,56.90
2022-10-29T22:52:29.588Z,56.83
2022-10-29T22:54:58.085Z,56.90
2022-10-29T22:57:26.895Z,57.13
2022-10-29T22:59:55.193Z,56.93
2022-10-29T23:02:23.773Z,57.05
2022-10-29T23:04:52.563Z,57.00
2022-10-29T23:07:21.712Z,57.02
2022-10-29T23:09:51.546Z,56.81
2022-10-29T23:12:19.973Z,56.81
2022-10-29T23:14:48.346Z,56.30
2022-10-29T23:17:19.759Z,56.43
2022-10-29T23:19:48.155Z,56.51
2022-10-29T23:22:16.681Z,56.39
2022-10-29T23:24:45.196Z,56.13
2022-10-29T23:27:14.995Z,55.97
2022-10-29T23:29:43.758Z,56.06
2022-10-29T23:32:12.284Z,56.14
2022-10-29T23:34:40.899Z,56.18
2022-10-29T23:37:10.137Z,56.14
2022-10-29T23:39:39.221Z,56.38
2022-10-29T23:42:07.560Z,56.30
2022-10-29T23:44:37.449Z,56.33
2022-10-29T23:47:05.863Z,56.39
2022-10-29T23:49:34.230Z,56.50
2022-10-29T23:52:02.624Z,56.67
2022-10-29T23:54:31.103Z,56.27
2022-10-29T23:56:59.421Z,55.92
2022-10-29T23:59:27.788Z,55.66
